Time;durP1;ratioP1;P1;durP2;ratioP2;P2;SDS_P1;SDS_P2;PMS_P1;PMS_P2;Temp;Humidity;BMP_temperature;BMP_pressure;BME280_temperature;BME280_humidity;BME280_pressure;Samples;Min_cycle;Max_cycle;Signal;HPM_P1;HPM_P2
2023/02/05 00:01:58;;;;;;;21.00;9.50;;;;;;;-1.99;100.00;98619.85;107247;1274;1003014;-73
2023/02/05 00:04:27;;;;;;;22.20;10.30;;;;;;;-1.98;100.00;98620.83;107784;1274;22508;-75
2023/02/05 00:06:56;;;;;;;21.00;9.60;;;;;;;-1.97;100.00;98618.44;107879;1274;25373;-75
2023/02/05 00:09:24;;;;;;;18.90;9.30;;;;;;;-1.95;100.00;98612.46;107936;1274;25243;-74
2023/02/05 00:11:54;;;;;;;35.10;15.10;;;;;;;-1.94;100.00;98606.52;107876;1275;25430;-75
2023/02/05 00:14:24;;;;;;;34.70;16.80;;;;;;;-1.94;100.00;98604.91;107963;1274;25380;-73
2023/02/05 00:16:52;;;;;;;36.00;17.50;;;;;;;-1.92;100.00;98601.64;107947;1274;24176;-75
2023/02/05 00:19:21;;;;;;;49.70;21.80;;;;;;;-1.92;100.00;98600.22;107989;1274;25424;-74
2023/02/05 00:21:50;;;;;;;89.90;35.10;;;;;;;-1.93;100.00;98599.56;108008;1274;25948;-73
2023/02/05 00:24:19;;;;;;;88.10;32.90;;;;;;;-1.95;100.00;98595.70;107995;1274;26504;-75
2023/02/05 00:26:48;;;;;;;120.60;37.60;;;;;;;-1.97;100.00;98592.79;107781;1274;25759;-73
2023/02/05 00:29:17;;;;;;;102.40;32.60;;;;;;;-1.95;100.00;98594.65;107995;1274;25297;-75
2023/02/05 00:31:48;;;;;;;80.30;25.80;;;;;;;-1.95;100.00;98593.73;107846;1274;25401;-75
2023/02/05 00:34:18;;;;;;;73.20;24.70;;;;;;;-1.93;100.00;98590.05;107821;1275;25319;-73
2023/02/05 00:36:47;;;;;;;70.20;24.10;;;;;;;-1.92;100.00;98590.30;107865;1275;22551;-76
2023/02/05 00:39:17;;;;;;;72.80;24.30;;;;;;;-1.91;100.00;98588.80;107880;1274;25295;-74
2023/02/05 00:41:47;;;;;;;105.20;35.80;;;;;;;-1.89;100.00;98586.36;107996;1275;22520;-73
2023/02/05 00:44:17;;;;;;;169.10;55.10;;;;;;;-1.87;100.00;98587.28;107955;1274;22752;-72
2023/02/05 00:46:47;;;;;;;105.50;38.40;;;;;;;-1.87;100.00;98584.26;107837;1274;25423;-74
2023/02/05 00:49:16;;;;;;;110.80;38.00;;;;;;;-1.86;100.00;98585.42;108095;1274;25430;-73
2023/02/05 00:51:47;;;;;;;76.20;28.10;;;;;;;-1.85;100.00;98583.35;107800;1274;25245;-73
2023/02/05 00:54:15;;;;;;;48.80;19.50;;;;;;;-1.82;100.00;98578.52;107862;1275;25261;-73
2023/02/05 00:56:46;;;;;;;45.60;17.30;;;;;;;-1.80;100.00;98575.91;107799;1274;24095;-74
2023/02/05 00:59:15;;;;;;;62.70;22.00;;;;;;;-1.78;100.00;98569.52;107571;1274;25442;-72
2023/02/05 01:01:44;;;;;;;59.60;19.10;;;;;;;-1.75;100.00;98566.29;107060;1274;1002386;-74
2023/02/05 01:04:13;;;;;;;50.80;18.60;;;;;;;-1.72;100.00;98562.87;108023;1274;26505;-73
2023/02/05 01:06:42;;;;;;;49.30;17.40;;;;;;;-1.69;100.00;98558.60;108024;1274;22829;-73
2023/02/05 01:09:11;;;;;;;63.80;20.30;;;;;;;-1.67;100.00;98557.67;107810;1274;22725;-73
2023/02/05 01:11:39;;;;;;;40.30;14.90;;;;;;;-1.64;100.00;98554.62;108006;1275;25309;-74
2023/02/05 01:14:09;;;;;;;26.40;12.50;;;;;;;-1.61;100.00;98549.36;108027;1274;25951;-73
2023/02/05 01:16:38;;;;;;;29.50;11.70;;;;;;;-1.59;100.00;98546.38;108017;1274;25258;-73
2023/02/05 01:19:08;;;;;;;33.80;14.10;;;;;;;-1.58;100.00;98543.44;107079;1274;1003751;-73
2023/02/05 01:21:38;;;;;;;43.90;17.80;;;;;;;-1.56;100.00;98542.39;107856;1274;22545;-74
2023/02/05 01:24:08;;;;;;;47.30;19.40;;;;;;;-1.55;100.00;98540.42;107069;1275;1003415;-74
2023/02/05 01:26:36;;;;;;;27.80;11.70;;;;;;;-1.55;100.00;98540.75;107079;1274;1003674;-72
2023/02/05 01:29:05;;;;;;;20.60;8.80;;;;;;;-1.56;100.00;98536.05;107859;1274;22577;-74
2023/02/05 01:31:33;;;;;;;19.90;9.30;;;;;;;-1.56;100.00;98534.13;107733;1274;22955;-73
2023/02/05 01:34:03;;;;;;;22.40;9.60;;;;;;;-1.57;100.00;98533.14;107141;1274;1003334;-72
2023/02/05 01:36:32;;;;;;;19.40;8.40;;;;;;;-1.57;100.00;98532.95;107905;1274;26629;-74
2023/02/05 01:39:01;;;;;;;23.90;9.80;;;;;;;-1.57;100.00;98535.04;107936;1274;22540;-72
2023/02/05 01:41:31;;;;;;;22.50;9.30;;;;;;;-1.55;100.00;98532.59;107940;1274;25316;-72
2023/02/05 01:44:23;;;;;;;20.60;8.80;;;;;;;-1.55;100.00;98534.86;107923;1274;25417;-73
2023/02/05 01:46:53;;;;;;;23.70;10.20;;;;;;;-1.54;100.00;98518.70;107962;1274;24099;-72
2023/02/05 01:49:41;;;;;;;19.80;8.80;;;;;;;-1.53;100.00;98527.64;107927;1274;22478;-73
2023/02/05 01:52:13;;;;;;;22.60;9.70;;;;;;;-1.51;100.00;98513.87;107888;1274;26570;-72
2023/02/05 01:54:43;;;;;;;21.10;9.20;;;;;;;-1.49;100.00;98527.18;107972;1274;25290;-74
2023/02/05 01:57:18;;;;;;;21.80;9.90;;;;;;;-1.47;100.00;98527.39;107106;1274;1002947;-73
2023/02/05 01:59:48;;;;;;;19.90;9.10;;;;;;;-1.45;100.00;98524.02;107812;1274;22561;-73
2023/02/05 02:02:16;;;;;;;24.80;10.50;;;;;;;-1.43;100.00;98526.96;107714;1274;22533;-73
2023/02/05 02:04:51;;;;;;;21.00;9.90;;;;;;;-1.41;100.00;98524.55;107703;1274;25420;-73
2023/02/05 02:07:21;;;;;;;24.40;9.50;;;;;;;-1.41;100.00;98518.83;107987;1274;22579;-74
2023/02/05 02:09:49;;;;;;;22.80;9.30;;;;;;;-1.40;100.00;98519.18;108040;1274;24192;-73
2023/02/05 02:12:22;;;;;;;20.40;8.90;;;;;;;-1.39;100.00;98520.67;107838;1274;23939;-72
2023/02/05 02:14:53;;;;;;;19.90;9.60;;;;;;;-1.39;100.00;98518.33;107855;1274;22529;-73
2023/02/05 02:17:21;;;;;;;22.40;9.70;;;;;;;-1.41;100.00;98518.85;107843;1274;23004;-72
2023/02/05 02:19:59;;;;;;;22.80;10.80;;;;;;;-1.42;100.00;98521.27;107945;1275;25303;-72
2023/02/05 02:22:54;;;;;;;21.90;9.30;;;;;;;-1.45;100.00;98510.35;108039;1274;24213;-72
2023/02/05 02:25:38;;;;;;;18.50;8.90;;;;;;;-1.46;100.00;98503.02;107653;1274;24274;-73
2023/02/05 02:28:30;;;;;;;21.90;9.20;;;;;;;-1.46;100.00;98507.10;107816;1274;23100;-71
2023/02/05 02:31:03;;;;;;;19.40;8.30;;;;;;;-1.47;100.00;98507.19;107885;1274;25299;-73
2023/02/05 02:33:49;;;;;;;23.10;9.90;;;;;;;-1.50;100.00;98520.15;107837;1274;22517;-72
2023/02/05 02:36:39;;;;;;;20.20;8.20;;;;;;;-1.52;100.00;98510.82;107678;1274;22472;-72
2023/02/05 02:39:31;;;;;;;21.10;9.50;;;;;;;-1.56;100.00;98509.35;107844;1274;22559;-74
2023/02/05 02:42:05;;;;;;;20.60;8.60;;;;;;;-1.59;100.00;98510.66;107963;1274;22542;-71
2023/02/05 02:44:40;;;;;;;20.30;9.00;;;;;;;-1.59;100.00;98521.67;107975;1274;24321;-73
2023/02/05 02:47:18;;;;;;;18.60;8.10;;;;;;;-1.59;100.00;98521.11;107670;1254;22525;-73
2023/02/05 02:50:01;;;;;;;19.80;8.40;;;;;;;-1.62;100.00;98522.13;106969;1274;1003324;-73
2023/02/05 02:52:36;;;;;;;18.20;7.40;;;;;;;-1.66;100.00;98520.83;108059;1274;22531;-73
2023/02/05 02:55:08;;;;;;;19.40;8.10;;;;;;;-1.68;100.00;98527.01;107279;1274;1003184;-73
2023/02/05 02:57:40;;;;;;;17.30;7.70;;;;;;;-1.70;100.00;98531.61;107752;1274;25312;-74
2023/02/05 03:00:14;;;;;;;20.20;8.40;;;;;;;-1.71;100.00;98534.85;107616;1263;22666;-73
2023/02/05 03:02:42;;;;;;;17.50;7.60;;;;;;;-1.70;100.00;98535.32;107858;1274;25242;-73
2023/02/05 03:05:14;;;;;;;18.20;7.40;;;;;;;-1.71;100.00;98536.97;107743;1274;25410;-74
2023/02/05 03:07:46;;;;;;;18.70;8.00;;;;;;;-1.72;100.00;98534.39;107908;1274;23778;-73
2023/02/05 03:11:07;;;;;;;16.30;7.50;;;;;;;-1.73;100.00;98539.02;107939;1274;22605;-74
2023/02/05 03:13:41;;;;;;;19.60;7.90;;;;;;;-1.74;100.00;98507.52;107203;1283;25437;-72
2023/02/05 03:16:11;;;;;;;25.00;10.40;;;;;;;-1.77;100.00;98531.80;106492;1283;1003251;-71
2023/02/05 03:18:40;;;;;;;39.30;17.70;;;;;;;-1.79;100.00;98537.64;107540;1274;25458;-74
2023/02/05 03:21:14;;;;;;;86.10;35.40;;;;;;;-1.81;100.00;98543.60;107757;1274;23911;-73
2023/02/05 03:23:44;;;;;;;82.20;35.10;;;;;;;-1.84;100.00;98539.81;107834;1275;22526;-72
2023/02/05 03:26:26;;;;;;;44.30;18.90;;;;;;;-1.84;100.00;98544.61;107877;1274;25354;-71
2023/02/05 03:29:04;;;;;;;33.50;13.80;;;;;;;-1.85;100.00;98532.70;107218;1274;1002435;-75
2023/02/05 03:31:56;;;;;;;33.70;13.40;;;;;;;-1.88;100.00;98546.91;107977;1274;24183;-74
2023/02/05 03:35:01;;;;;;;59.00;19.80;;;;;;;-1.92;100.00;98535.35;107882;1274;24758;-72
2023/02/05 03:37:41;;;;;;;42.70;14.80;;;;;;;-1.93;100.00;98527.14;107910;1274;22801;-74
2023/02/05 03:40:15;;;;;;;30.30;11.80;;;;;;;-1.96;100.00;98534.88;108048;1274;24311;-74
2023/02/05 03:43:16;;;;;;;29.30;10.80;;;;;;;-2.01;100.00;98543.71;108051;1274;22610;-74
2023/02/05 03:45:56;;;;;;;29.10;11.30;;;;;;;-2.03;100.00;98531.92;107982;1274;22527;-74
2023/02/05 03:48:27;;;;;;;30.40;11.70;;;;;;;-2.05;100.00;98547.05;108020;1274;25430;-74
2023/02/05 03:51:09;;;;;;;27.60;10.40;;;;;;;-2.06;100.00;98555.44;107260;1274;1003202;-73
2023/02/05 03:54:01;;;;;;;22.10;8.80;;;;;;;-2.07;100.00;98545.45;108090;1274;24173;-73
2023/02/05 03:56:39;;;;;;;20.30;8.30;;;;;;;-2.07;100.00;98538.79;107336;1274;1003296;-74
2023/02/05 03:59:07;;;;;;;17.20;6.80;;;;;;;-2.09;100.00;98547.92;107961;1274;25303;-74
2023/02/05 04:01:36;;;;;;;24.00;9.10;;;;;;;-2.10;100.00;98554.54;107775;1274;25418;-73
2023/02/05 04:04:04;;;;;;;26.80;10.00;;;;;;;-2.11;100.00;98553.34;107853;1274;22618;-74
2023/02/05 04:06:33;;;;;;;21.20;7.80;;;;;;;-2.11;100.00;98555.17;107837;1274;25574;-74
2023/02/05 04:09:02;;;;;;;27.20;9.60;;;;;;;-2.13;100.00;98552.62;107875;1274;22480;-74
2023/02/05 04:11:31;;;;;;;20.10;8.70;;;;;;;-2.13;100.00;98553.36;107156;1274;1003529;-73
2023/02/05 04:14:02;;;;;;;33.40;10.70;;;;;;;-2.13;100.00;98549.13;107929;1274;22615;-73
2023/02/05 04:16:30;;;;;;;23.40;8.30;;;;;;;-2.13;100.00;98552.67;108123;1274;25370;-73
2023/02/05 04:19:00;;;;;;;24.30;8.80;;;;;;;-2.13;100.00;98553.90;107881;1274;26555;-74
2023/02/05 04:21:29;;;;;;;23.00;8.40;;;;;;;-2.13;100.00;98553.17;107068;1274;1003619;-74
2023/02/05 04:23:59;;;;;;;23.20;8.70;;;;;;;-2.13;100.00;98555.82;108043;1274;25413;-74
2023/02/05 04:26:29;;;;;;;28.40;10.10;;;;;;;-2.15;100.00;98557.41;107992;1274;23854;-74
2023/02/05 04:29:02;;;;;;;25.20;9.10;;;;;;;-2.16;100.00;98555.55;107800;1274;25294;-72
2023/02/05 04:31:32;;;;;;;25.00;9.50;;;;;;;-2.17;100.00;98559.67;107298;1274;1003046;-74
2023/02/05 04:34:01;;;;;;;27.70;10.20;;;;;;;-2.17;100.00;98554.27;107850;1274;24180;-74
2023/02/05 04:36:30;;;;;;;25.90;9.00;;;;;;;-2.17;100.00;98552.65;108091;1274;25421;-72
2023/02/05 04:38:59;;;;;;;22.60;8.80;;;;;;;-2.17;100.00;98549.99;107670;1274;25434;-73
2023/02/05 04:41:29;;;;;;;19.10;7.30;;;;;;;-2.17;100.00;98548.27;107978;1274;25484;-74
2023/02/05 04:43:58;;;;;;;18.70;7.10;;;;;;;-2.19;100.00;98552.66;107863;1274;25939;-73
2023/02/05 04:46:27;;;;;;;17.00;6.90;;;;;;;-2.20;100.00;98555.52;107875;1274;24307;-72
2023/02/05 04:48:56;;;;;;;18.90;7.20;;;;;;;-2.20;100.00;98555.91;107947;1274;25433;-74
2023/02/05 04:51:24;;;;;;;21.90;8.00;;;;;;;-2.21;100.00;98559.13;107836;1274;25424;-74
2023/02/05 04:53:53;;;;;;;24.40;9.00;;;;;;;-2.21;100.00;98560.21;107928;1274;26688;-72
2023/02/05 04:56:22;;;;;;;21.70;8.00;;;;;;;-2.21;100.00;98563.02;107902;1274;25287;-73
2023/02/05 04:58:50;;;;;;;22.40;8.30;;;;;;;-2.21;100.00;98566.76;107628;1274;25316;-72
2023/02/05 05:01:20;;;;;;;21.70;7.50;;;;;;;-2.21;100.00;98565.70;107671;1274;26499;-73
2023/02/05 05:03:49;;;;;;;18.30;7.10;;;;;;;-2.21;100.00;98562.66;107695;1274;22535;-74
2023/02/05 05:06:18;;;;;;;16.40;7.40;;;;;;;-2.21;100.00;98567.08;107803;1274;25230;-74
2023/02/05 05:08:47;;;;;;;16.30;6.20;;;;;;;-2.21;100.00;98565.13;108008;1274;25262;-74
2023/02/05 05:11:17;;;;;;;15.60;6.50;;;;;;;-2.22;100.00;98566.48;107837;1274;22474;-74
2023/02/05 05:13:48;;;;;;;17.10;6.30;;;;;;;-2.22;100.00;98563.34;107997;1274;24013;-72
2023/02/05 05:16:17;;;;;;;13.30;6.40;;;;;;;-2.23;100.00;98561.82;107923;1274;22513;-74
2023/02/05 05:18:45;;;;;;;14.60;6.50;;;;;;;-2.25;100.00;98568.85;107817;1274;25433;-73
2023/02/05 05:21:15;;;;;;;15.80;6.00;;;;;;;-2.26;100.00;98563.64;107992;1274;25300;-74
2023/02/05 05:23:44;;;;;;;16.70;6.60;;;;;;;-2.26;100.00;98569.60;107988;1274;26469;-73
2023/02/05 05:26:13;;;;;;;15.70;6.40;;;;;;;-2.26;100.00;98571.27;108021;1274;25527;-74
2023/02/05 05:28:41;;;;;;;15.80;6.00;;;;;;;-2.28;100.00;98568.73;108037;1274;23886;-73
2023/02/05 05:31:21;;;;;;;15.60;6.60;;;;;;;-2.29;100.00;98571.05;108071;1274;25421;-74
2023/02/05 05:33:50;;;;;;;16.00;6.30;;;;;;;-2.29;100.00;98562.95;107275;1274;1003406;-73
2023/02/05 05:36:18;;;;;;;16.50;6.50;;;;;;;-2.29;100.00;98573.20;107218;1274;1002893;-73
2023/02/05 05:38:47;;;;;;;17.40;6.70;;;;;;;-2.28;100.00;98569.25;108091;1274;25300;-73
2023/02/05 05:44:08;;;;;;;14.60;5.70;;;;;;;-2.26;100.00;98558.51;108159;1274;25223;-74
2023/02/05 05:46:40;;;;;;;16.20;6.80;;;;;;;-2.25;100.00;98566.73;107966;1274;25909;-73
2023/02/05 05:49:09;;;;;;;17.30;6.70;;;;;;;-2.24;100.00;98568.20;107846;1274;26472;-73
2023/02/05 05:51:38;;;;;;;13.80;6.10;;;;;;;-2.21;100.00;98574.90;107905;1274;25438;-74
2023/02/05 05:54:06;;;;;;;13.80;6.30;;;;;;;-2.19;100.00;98571.21;108125;1274;23838;-74
2023/02/05 05:56:35;;;;;;;12.90;5.80;;;;;;;-2.18;100.00;98570.40;107325;1274;1003105;-75
2023/02/05 05:59:04;;;;;;;14.40;6.40;;;;;;;-2.18;100.00;98564.38;108003;1274;22566;-74
2023/02/05 06:01:33;;;;;;;14.50;6.70;;;;;;;-2.17;100.00;98562.90;107234;1274;1003227;-74
2023/02/05 06:04:02;;;;;;;15.30;6.10;;;;;;;-2.16;100.00;98561.42;107204;1274;1015810;-74
2023/02/05 06:06:32;;;;;;;13.40;5.80;;;;;;;-2.15;100.00;98560.20;107980;1274;24165;-73
2023/02/05 06:09:01;;;;;;;13.10;5.70;;;;;;;-2.13;100.00;98556.89;107210;1274;1003536;-74
2023/02/05 06:11:29;;;;;;;11.70;5.10;;;;;;;-2.10;100.00;98556.60;107991;1274;22627;-73
2023/02/05 06:13:58;;;;;;;13.50;5.40;;;;;;;-2.08;100.00;98560.23;107994;1274;22624;-74
2023/02/05 06:16:27;;;;;;;14.20;6.40;;;;;;;-2.10;100.00;98556.61;107913;1274;22649;-74
2023/02/05 06:18:58;;;;;;;15.10;6.20;;;;;;;-2.09;100.00;98556.38;108015;1274;26752;-74
2023/02/05 06:21:26;;;;;;;16.70;6.40;;;;;;;-2.08;100.00;98556.52;108006;1274;22575;-74
2023/02/05 06:23:57;;;;;;;15.10;6.40;;;;;;;-2.07;100.00;98553.09;108105;1274;26574;-74
2023/02/05 06:26:27;;;;;;;13.30;5.80;;;;;;;-2.07;100.00;98555.92;108132;1274;25421;-73
2023/02/05 06:28:56;;;;;;;15.10;6.50;;;;;;;-2.06;100.00;98560.73;108083;1274;23133;-73
2023/02/05 06:31:25;;;;;;;14.60;6.20;;;;;;;-2.04;100.00;98561.81;107982;1274;26552;-75
2023/02/05 06:33:54;;;;;;;15.30;6.00;;;;;;;-2.03;100.00;98565.14;108100;1274;25429;-74
2023/02/05 06:36:23;;;;;;;14.30;6.20;;;;;;;-2.04;100.00;98567.45;107929;1274;25514;-73
2023/02/05 06:38:52;;;;;;;15.60;6.30;;;;;;;-2.02;100.00;98574.90;107188;1274;1003691;-75
2023/02/05 06:41:20;;;;;;;14.80;6.10;;;;;;;-2.01;100.00;98573.60;107957;1274;24221;-75
2023/02/05 06:43:48;;;;;;;12.10;5.80;;;;;;;-1.99;100.00;98578.05;107806;1274;25429;-74
2023/02/05 06:46:18;;;;;;;14.40;6.30;;;;;;;-1.99;100.00;98584.19;107755;1274;25905;-75
2023/02/05 06:48:46;;;;;;;13.50;6.50;;;;;;;-1.98;100.00;98583.53;107742;1274;22523;-73
2023/02/05 06:51:15;;;;;;;14.50;6.60;;;;;;;-1.98;100.00;98582.15;107726;1274;23921;-74
2023/02/05 06:53:45;;;;;;;15.40;6.90;;;;;;;-1.97;100.00;98584.39;107726;1274;23804;-74
2023/02/05 06:56:13;;;;;;;15.60;6.50;;;;;;;-1.97;100.00;98582.58;107781;1274;25425;-75
2023/02/05 06:58:42;;;;;;;15.80;6.10;;;;;;;-1.96;100.00;98588.50;107817;1274;22623;-74
2023/02/05 07:01:10;;;;;;;15.70;6.70;;;;;;;-1.94;100.00;98589.46;107881;1274;22530;-74
2023/02/05 07:03:39;;;;;;;14.50;6.00;;;;;;;-1.94;100.00;98587.23;107660;1274;22475;-75
2023/02/05 07:06:08;;;;;;;17.20;6.30;;;;;;;-1.93;100.00;98586.68;107797;1263;22630;-76
2023/02/05 07:08:37;;;;;;;16.80;6.70;;;;;;;-1.91;100.00;98587.23;107183;1274;1003255;-75
2023/02/05 07:11:05;;;;;;;15.90;6.40;;;;;;;-1.89;100.00;98589.21;107138;1274;1003286;-75
2023/02/05 07:13:34;;;;;;;17.10;6.70;;;;;;;-1.89;100.00;98591.86;107856;1274;22864;-76
2023/02/05 07:16:04;;;;;;;12.60;5.50;;;;;;;-1.88;100.00;98600.27;107189;1274;1003171;-74
2023/02/05 07:18:33;;;;;;;14.40;6.10;;;;;;;-1.87;100.00;98601.79;107817;1274;24277;-73
2023/02/05 07:21:07;;;;;;;16.90;6.70;;;;;;;-1.88;100.00;98600.95;107818;1274;25448;-75
2023/02/05 07:23:36;;;;;;;16.60;6.40;;;;;;;-1.88;100.00;98602.52;107923;1274;22654;-75
2023/02/05 07:26:06;;;;;;;15.00;6.50;;;;;;;-1.86;100.00;98607.85;107611;1275;22569;-76
2023/02/05 07:28:35;;;;;;;16.50;7.00;;;;;;;-1.81;100.00;98602.70;106952;1275;1002518;-74
2023/02/05 07:31:05;;;;;;;16.10;6.50;;;;;;;-1.77;100.00;98604.06;107008;1275;1003773;-74
2023/02/05 07:33:37;;;;;;;17.20;6.30;;;;;;;-1.74;100.00;98601.67;107814;1275;24205;-74
2023/02/05 07:36:07;;;;;;;17.30;7.10;;;;;;;-1.74;100.00;98602.78;107689;1275;26519;-74
2023/02/05 07:38:37;;;;;;;14.00;6.20;;;;;;;-1.77;100.00;98606.35;107811;1253;22473;-74
2023/02/05 07:41:06;;;;;;;17.00;7.10;;;;;;;-1.78;100.00;98611.54;106947;1275;1003462;-73
2023/02/05 07:43:36;;;;;;;14.20;6.20;;;;;;;-1.77;100.00;98612.17;107766;1275;25316;-73
2023/02/05 07:46:10;;;;;;;17.80;7.20;;;;;;;-1.77;100.00;98612.39;106820;1275;1002899;-74
2023/02/05 07:48:39;;;;;;;15.70;6.40;;;;;;;-1.78;100.00;98613.92;107560;1275;23858;-73
2023/02/05 07:51:09;;;;;;;14.70;6.50;;;;;;;-1.78;100.00;98621.81;106861;1275;1003711;-73
2023/02/05 07:53:37;;;;;;;15.00;6.10;;;;;;;-1.77;100.00;98624.91;107591;1275;24244;-74
2023/02/05 07:56:06;;;;;;;14.60;6.50;;;;;;;-1.73;100.00;98625.10;107769;1275;26879;-74
2023/02/05 07:58:35;;;;;;;15.10;7.00;;;;;;;-1.65;100.00;98621.48;107740;1275;23821;-73
2023/02/05 08:01:05;;;;;;;15.20;5.80;;;;;;;-1.57;100.00;98620.61;107662;1275;22536;-73
2023/02/05 08:03:34;;;;;;;14.20;6.20;;;;;;;-1.49;100.00;98618.02;106841;1275;1003019;-73
2023/02/05 08:06:04;;;;;;;15.00;6.20;;;;;;;-1.45;100.00;98621.21;107671;1275;25304;-72
2023/02/05 08:08:33;;;;;;;12.90;5.70;;;;;;;-1.47;100.00;98621.90;107768;1275;22517;-73
2023/02/05 08:11:03;;;;;;;14.10;6.30;;;;;;;-1.50;100.00;98630.64;107739;1275;22554;-74
2023/02/05 08:13:35;;;;;;;15.50;5.70;;;;;;;-1.53;100.00;98637.79;107621;1275;22928;-74
2023/02/05 08:16:06;;;;;;;14.90;6.00;;;;;;;-1.55;100.00;98647.09;107678;1275;24178;-73
2023/02/05 08:18:35;;;;;;;14.80;6.20;;;;;;;-1.55;100.00;98646.92;107006;1275;1002933;-74
2023/02/05 08:21:03;;;;;;;14.10;6.10;;;;;;;-1.54;100.00;98650.22;106980;1275;1002507;-73
2023/02/05 08:23:32;;;;;;;15.70;6.70;;;;;;;-1.54;100.00;98654.24;107731;1275;25433;-73
2023/02/05 08:26:01;;;;;;;15.50;6.90;;;;;;;-1.53;100.00;98662.13;107816;1274;23768;-73
2023/02/05 08:28:30;;;;;;;16.70;7.00;;;;;;;-1.48;100.00;98666.20;107815;1274;22994;-74
2023/02/05 08:30:59;;;;;;;15.70;6.70;;;;;;;-1.49;100.00;98675.86;107707;1274;23906;-74
2023/02/05 08:33:28;;;;;;;15.00;6.40;;;;;;;-1.53;100.00;98688.51;107021;1274;1003852;-74
2023/02/05 08:35:57;;;;;;;14.70;6.20;;;;;;;-1.55;100.00;98691.48;106964;1274;1005224;-74
2023/02/05 08:38:26;;;;;;;13.40;5.80;;;;;;;-1.56;100.00;98703.61;107826;1274;25236;-73
2023/02/05 08:40:56;;;;;;;13.10;5.80;;;;;;;-1.57;100.00;98706.13;107827;1274;25386;-74
2023/02/05 08:43:25;;;;;;;14.00;6.00;;;;;;;-1.58;100.00;98710.33;107037;1274;1003051;-73
2023/02/05 08:45:54;;;;;;;13.70;6.10;;;;;;;-1.61;100.00;98717.95;106978;1274;1003039;-72
2023/02/05 08:48:23;;;;;;;14.30;5.60;;;;;;;-1.63;100.00;98723.23;107793;1274;26523;-73
2023/02/05 08:50:52;;;;;;;12.90;5.80;;;;;;;-1.62;100.00;98731.14;107889;1274;22553;-73
2023/02/05 08:53:21;;;;;;;15.90;6.50;;;;;;;-1.60;100.00;98737.34;107816;1274;26518;-73
2023/02/05 08:56:00;;;;;;;18.30;7.10;;;;;;;-1.55;100.00;98740.21;107804;1274;25264;-73
2023/02/05 08:58:30;;;;;;;15.80;7.20;;;;;;;-1.47;100.00;98733.77;107156;1274;1002413;-74
2023/02/05 09:01:03;;;;;;;19.00;9.10;;;;;;;-1.40;100.00;98738.48;107781;1274;22830;-73
2023/02/05 09:03:32;;;;;;;23.30;9.80;;;;;;;-1.34;100.00;98739.95;107052;1274;1003076;-74
2023/02/05 09:06:04;;;;;;;20.50;9.60;;;;;;;-1.29;100.00;98744.37;106933;1274;1003014;-73
2023/02/05 09:08:33;;;;;;;29.10;13.40;;;;;;;-1.27;100.00;98749.86;107779;1274;22578;-72
2023/02/05 09:11:03;;;;;;;42.80;19.80;;;;;;;-1.28;100.00;98756.95;107029;1274;1002848;-73
2023/02/05 09:13:32;;;;;;;26.00;11.90;;;;;;;-1.29;100.00;98769.23;107749;1274;26678;-73
2023/02/05 09:16:01;;;;;;;30.10;12.70;;;;;;;-1.29;100.00;98770.69;107785;1274;25323;-72
2023/02/05 09:18:30;;;;;;;20.40;8.30;;;;;;;-1.28;100.00;98781.75;107948;1274;23688;-74
2023/02/05 09:21:00;;;;;;;18.00;7.60;;;;;;;-1.29;100.00;98788.68;107807;1274;24000;-73
2023/02/05 09:23:30;;;;;;;17.10;7.50;;;;;;;-1.28;100.00;98801.38;106870;1274;1003067;-73
2023/02/05 09:25:59;;;;;;;10.60;5.40;;;;;;;-1.25;100.00;98810.14;107873;1274;26720;-73
2023/02/05 09:28:28;;;;;;;14.40;6.20;;;;;;;-1.23;100.00;98819.88;107867;1274;25424;-75
2023/02/05 09:30:57;;;;;;;16.10;7.10;;;;;;;-1.19;100.00;98827.52;107219;1274;1003031;-74
2023/02/05 09:33:25;;;;;;;18.00;7.30;;;;;;;-1.14;100.00;98838.41;107227;1274;1002464;-73
2023/02/05 09:35:57;;;;;;;13.80;6.50;;;;;;;-1.10;100.00;98846.06;107170;1274;1002457;-74
2023/02/05 09:38:26;;;;;;;15.80;7.20;;;;;;;-1.10;100.00;98861.63;108038;1274;22533;-73
2023/02/05 09:41:04;;;;;;;14.40;6.60;;;;;;;-1.12;100.00;98879.84;107957;1274;23894;-73
2023/02/05 09:43:52;;;;;;;20.10;8.40;;;;;;;-1.13;100.00;98889.99;107929;1274;25557;-75
2023/02/05 09:46:41;;;;;;;44.70;14.80;;;;;;;-1.11;100.00;98896.39;107886;1274;22712;-72
2023/02/05 09:49:10;;;;;;;54.60;20.10;;;;;;;-1.12;100.00;98908.66;107661;1274;26507;-72
2023/02/05 09:51:47;;;;;;;49.30;19.30;;;;;;;-1.15;100.00;98937.66;107832;1274;25313;-73
2023/02/05 09:54:37;;;;;;;33.50;12.70;;;;;;;-1.13;100.00;98949.04;107875;1274;22524;-72
2023/02/05 09:57:10;;;;;;;56.90;16.90;;;;;;;-1.10;100.00;98949.16;107020;1274;1003051;-73
2023/02/05 09:59:41;;;;;;;22.90;11.50;;;;;;;-1.06;100.00;98968.64;107741;1274;22461;-71
2023/02/05 10:02:30;;;;;;;21.60;10.70;;;;;;;-1.02;100.00;98981.36;107877;1274;22675;-73
2023/02/05 10:04:59;;;;;;;43.10;16.40;;;;;;;-0.98;100.00;98982.86;107749;1274;26034;-72
2023/02/05 10:07:49;;;;;;;46.00;25.90;;;;;;;-0.96;100.00;99010.98;107759;1274;23771;-73
2023/02/05 10:10:27;;;;;;;34.80;16.20;;;;;;;-0.90;100.00;99037.63;106907;1274;1003088;-74
2023/02/05 10:13:11;;;;;;;47.50;17.90;;;;;;;-0.83;100.00;99066.74;106946;1274;1003066;-72
2023/02/05 10:15:42;;;;;;;;;;;;;;;-0.80;100.00;99080.98;107570;1274;25568;-73
2023/02/05 10:18:31;;;;;;;15.10;7.10;;;;;;;-0.74;100.00;99110.50;106767;1274;1002913;-70
2023/02/05 10:21:02;;;;;;;30.10;11.50;;;;;;;-0.68;100.00;99126.85;107482;1274;25242;-72
2023/02/05 10:23:44;;;;;;;26.30;10.40;;;;;;;-0.63;100.00;99154.89;106780;1274;1002943;-72
2023/02/05 10:26:14;;;;;;;18.80;8.80;;;;;;;-0.57;100.00;99172.34;107637;1274;22532;-72
2023/02/05 10:29:02;;;;;;;18.00;8.10;;;;;;;-0.51;100.00;99196.67;106858;1260;1003473;-75
2023/02/05 10:32:16;;;;;;;19.00;8.50;;;;;;;-0.44;100.00;99208.31;106525;1274;1003600;-73
2023/02/05 10:35:06;;;;;;;21.20;9.10;;;;;;;-0.37;100.00;99224.44;106843;1282;25381;-71
2023/02/05 10:37:44;;;;;;;16.10;7.50;;;;;;;-0.35;100.00;99260.73;106608;1274;1002831;-72
2023/02/05 10:40:17;;;;;;;14.20;6.90;;;;;;;-0.37;100.00;99294.86;107609;1274;22533;-72
2023/02/05 10:42:49;;;;;;;51.00;24.90;;;;;;;-0.38;100.00;99326.10;106652;1274;1003607;-72
2023/02/05 10:45:25;;;;;;;35.40;18.80;;;;;;;-0.44;100.00;99354.05;107612;1274;25414;-72
2023/02/05 10:48:17;;;;;;;21.90;10.20;;;;;;;-0.53;100.00;99386.63;107619;1274;25440;-72
2023/02/05 10:50:48;;;;;;;93.70;36.10;;;;;;;-0.61;100.00;99414.45;107523;1274;22704;-72
2023/02/05 10:53:22;;;;;;;37.40;17.50;;;;;;;-0.69;100.00;99460.00;107590;1274;25569;-72
2023/02/05 10:55:51;;;;;;;22.80;11.30;;;;;;;-0.76;100.00;99495.60;107365;1274;22516;-74
2023/02/05 10:58:33;;;;;;;21.30;10.40;;;;;;;-0.85;100.00;99532.66;106723;1274;1004283;-72
2023/02/05 11:01:02;;;;;;;19.70;8.30;;;;;;;-0.91;100.00;99555.62;107554;1274;22462;-73
2023/02/05 11:03:33;;;;;;;23.00;10.20;;;;;;;-0.98;100.00;99584.04;107360;1274;25352;-73
2023/02/05 11:06:06;;;;;;;16.10;7.60;;;;;;;-1.06;100.00;99611.13;106604;1274;1003559;-72
2023/02/05 11:08:40;;;;;;;17.20;8.30;;;;;;;-1.16;100.00;99633.09;106614;1274;1003300;-73
2023/02/05 11:11:22;;;;;;;;;;;;;;;-1.25;100.00;99658.45;106832;1274;1002867;-73
2023/02/05 11:13:54;;;;;;;16.60;7.00;;;;;;;-1.31;100.00;99668.91;107455;1274;24196;-74
2023/02/05 11:16:35;;;;;;;14.60;7.20;;;;;;;-1.39;100.00;99682.75;107529;1274;23934;-72
2023/02/05 11:19:04;;;;;;;16.30;7.30;;;;;;;-1.43;100.00;99690.96;106757;1274;1002868;-72
2023/02/05 11:21:46;;;;;;;16.40;6.90;;;;;;;-1.47;100.00;99709.98;107523;1274;22592;-72
2023/02/05 11:24:35;;;;;;;17.10;7.50;;;;;;;-1.53;100.00;99714.04;107570;1274;25610;-72
2023/02/05 11:27:16;;;;;;;16.10;7.10;;;;;;;-1.54;100.00;99720.14;107555;1274;24225;-73
2023/02/05 11:29:45;;;;;;;13.00;5.50;;;;;;;-1.55;100.00;99725.67;107597;1274;25430;-72
2023/02/05 11:32:20;;;;;;;11.40;5.70;;;;;;;-1.54;100.00;99733.95;107525;1274;25354;-71